Main page
METAR-TAF:

METAR-TAF

Airports :

Liepāja International Airport

Liepāja, Latvia

latitude: 56-31N, longitude: 021-05E, elevation: 5 m

Current weather observation

The report was made 14 minutes ago, at 03:20 UTC
Wind 5 kt from the East
Temperature 18°C
Humidity 94%
Pressure 1013 hPa
Visibility 10 km or more
no clouds below 1500 m and no cumulonimbus

METAR: EVLA 150320Z AUTO 08005KT CAVOK 18/17 Q1013

Time: 06:34 (03:34 UTC)

Forecast

The report was made 1 hour and 29 minutes ago, at 02:05 UTC
Forecast valid from 15 at 03 UTC to 16 at 03 UTC
Wind 7 kt from the East
Visibility 10 km or more
no clouds below 1500 m and no cumulonimbus
Temporary
from 15 at 09 UTC to 15 at 21 UTC
Scattered clouds at a height of 3500 ft, Cumulonimbus.
Probability 40% :
Temporary
from 15 at 10 UTC to 15 at 21 UTC
Wind 28 kt from variable directions
Broken clouds at a height of 3000 ft, Cumulonimbus.
thunderstorm, light rain

TAF: EVLA 150205Z 1503/1603 09007KT CAVOK TEMPO 1509/1521 SCT035CB PROB40 TEMPO 1510/1521 VRB28KT -TSRA BKN030CB

Weather observations and forecasts of more than 4000 airports (METAR and TAF reports).

The available stations are represented by yellow and red dots on the map.

Hover mouse over dot to see the name of the station.

Then click to see weather observations and forecasts.

To change the map : click on the green buttons with a black cross to zoom in, on the green button with a dash to zoom out, or on the green arrows for adjacent maps.


METAR-TAF: